Time;durP1;ratioP1;P1;durP2;ratioP2;P2;SDS_P1;SDS_P2;PMS_P1;PMS_P2;Temp;Humidity;BMP_temperature;BMP_pressure;BME280_temperature;BME280_humidity;BME280_pressure;Samples;Min_cycle;Max_cycle;Signal;HPM_P1;HPM_P2
2023/10/02 00:01:10;;;;;;;10.43;8.63;;;;;;;17.28;81.46;95268.38;5149724;27;20184;-44
2023/10/02 00:03:40;;;;;;;11.13;7.93;;;;;;;17.26;80.88;95263.38;5145947;27;20578;-44
2023/10/02 00:06:07;;;;;;;10.10;8.07;;;;;;;17.27;80.65;95253.81;5153073;27;20239;-44
2023/10/02 00:08:39;;;;;;;8.43;7.63;;;;;;;17.25;80.36;95258.38;5154841;27;20258;-45
2023/10/02 00:14:22;;;;;;;10.60;8.37;;;;;;;17.27;79.73;95252.06;5153337;27;20179;-44
2023/10/02 00:16:59;;;;;;;10.73;7.17;;;;;;;17.30;79.43;95259.47;5153500;27;20180;-44
2023/10/02 00:19:28;;;;;;;12.47;7.57;;;;;;;17.30;79.18;95259.47;5153056;27;20701;-45
2023/10/02 00:21:57;;;;;;;12.23;6.83;;;;;;;17.30;78.95;95262.06;5159591;27;20176;-44
2023/10/02 00:24:26;;;;;;;12.00;7.07;;;;;;;17.34;78.69;95256.56;5174107;27;20234;-44
2023/10/02 00:26:52;;;;;;;12.33;6.53;;;;;;;17.38;78.13;95252.69;5174439;27;20215;-44
2023/10/02 00:29:23;;;;;;;11.27;7.13;;;;;;;17.39;77.73;95257.69;5173577;27;20249;-45
2023/10/02 00:31:50;;;;;;;7.93;6.17;;;;;;;17.43;77.11;95255.56;5172031;27;20198;-44
2023/10/02 00:34:30;;;;;;;12.50;7.00;;;;;;;17.40;77.05;95253.31;5154717;27;20191;-45
2023/10/02 00:36:58;;;;;;;10.57;6.33;;;;;;;17.19;77.13;95215.91;5152980;27;20191;-44
2023/10/02 00:39:30;;;;;;;12.37;6.00;;;;;;;17.40;77.07;95251.56;5152557;27;20562;-45
2023/10/02 00:44:58;;;;;;;9.17;6.20;;;;;;;17.35;76.21;95248.63;5172941;27;20178;-45
2023/10/02 00:47:38;;;;;;;7.20;6.03;;;;;;;17.20;76.09;95214.13;5173482;27;20313;-44
2023/10/02 00:50:16;;;;;;;6.57;5.90;;;;;;;17.37;75.80;95241.53;5173264;27;20254;-44
2023/10/02 00:52:48;;;;;;;6.97;5.50;;;;;;;17.45;75.51;95251.06;5170180;27;20191;-46
2023/10/02 00:55:16;;;;;;;7.57;6.03;;;;;;;17.43;75.48;95243.44;5167257;27;20302;-44
2023/10/02 00:57:45;;;;;;;8.60;5.47;;;;;;;17.50;75.02;95253.94;5172893;27;20266;-45
2023/10/02 01:00:20;;;;;;;9.10;5.80;;;;;;;17.47;74.88;95238.75;5173282;27;20209;-45
2023/10/02 01:02:49;;;;;;;7.03;5.73;;;;;;;17.52;74.87;95252.78;5172994;27;20274;-45
2023/10/02 01:05:21;;;;;;;8.13;5.23;;;;;;;17.55;74.36;95252.47;5170837;27;20183;-44
2023/10/02 01:07:53;;;;;;;7.13;5.70;;;;;;;17.55;73.94;95242.13;5173103;27;20211;-45
2023/10/02 01:10:20;;;;;;;9.30;5.47;;;;;;;17.53;74.07;95246.66;5173408;27;20179;-45
2023/10/02 01:12:49;;;;;;;7.30;5.67;;;;;;;17.47;73.91;95236.97;5172353;27;20198;-44
2023/10/02 01:15:26;;;;;;;9.83;5.77;;;;;;;17.58;72.76;95250.53;5168591;27;20652;-45
2023/10/02 01:17:53;;;;;;;9.17;5.87;;;;;;;17.53;72.96;95251.84;5152214;27;20265;-45
2023/10/02 01:20:33;;;;;;;7.80;5.90;;;;;;;17.49;73.38;95244.59;5152445;27;20207;-45
2023/10/02 01:23:16;;;;;;;7.03;5.83;;;;;;;17.45;73.44;95240.72;5152116;27;20180;-45
2023/10/02 01:25:45;;;;;;;9.50;5.10;;;;;;;17.44;73.19;95241.66;5153105;27;20190;-44
2023/10/02 01:28:13;;;;;;;8.87;5.47;;;;;;;17.46;72.74;95240.53;5171981;27;20314;-45
2023/10/02 01:30:44;;;;;;;6.17;5.00;;;;;;;17.40;72.75;95243.81;5172123;27;20191;-46
2023/10/02 01:33:14;;;;;;;9.50;5.33;;;;;;;17.33;73.27;95248.00;5172600;27;20187;-45
2023/10/02 01:35:49;;;;;;;10.17;5.23;;;;;;;17.24;73.33;95228.31;5172367;27;20282;-45
2023/10/02 01:38:21;;;;;;;9.50;5.60;;;;;;;17.28;73.48;95242.53;5172500;27;20205;-44
2023/10/02 01:40:53;;;;;;;7.90;5.20;;;;;;;17.26;73.62;95250.44;5162739;27;20203;-44
2023/10/02 01:43:22;;;;;;;7.47;5.60;;;;;;;17.26;73.56;95242.69;5164106;27;20256;-45
2023/10/02 01:45:49;;;;;;;9.13;5.93;;;;;;;17.23;73.64;95245.63;5151349;27;20249;-44
2023/10/02 01:48:36;;;;;;;7.27;5.37;;;;;;;17.20;73.60;95258.88;5151279;27;20322;-45
2023/10/02 01:51:20;;;;;;;9.90;5.17;;;;;;;17.23;72.74;95261.13;5152135;27;20171;-44
2023/10/02 01:53:48;;;;;;;6.53;4.90;;;;;;;17.22;72.51;95261.28;5171020;27;20560;-44
2023/10/02 01:56:17;;;;;;;6.70;4.60;;;;;;;17.22;72.47;95262.06;5172225;27;20290;-43
2023/10/02 01:58:45;;;;;;;9.80;5.77;;;;;;;17.19;72.52;95259.84;5172074;27;20254;-46
2023/10/02 02:01:12;;;;;;;7.00;4.90;;;;;;;17.14;72.65;95263.88;5170114;27;20203;-43
2023/10/02 02:03:41;;;;;;;7.37;5.57;;;;;;;17.07;72.81;95263.72;5159687;27;20225;-45
2023/10/02 02:06:11;;;;;;;7.10;5.70;;;;;;;17.02;72.91;95259.06;5151101;27;20184;-44
2023/10/02 02:08:38;;;;;;;8.27;5.20;;;;;;;16.99;73.07;95263.72;5150934;27;20219;-44
2023/10/02 02:11:16;;;;;;;6.43;5.20;;;;;;;16.88;73.22;95251.97;5155961;27;20209;-45
2023/10/02 02:13:48;;;;;;;7.17;5.17;;;;;;;16.88;73.21;95264.06;5151535;27;20191;-44
2023/10/02 02:16:25;;;;;;;6.17;4.97;;;;;;;16.84;73.21;95257.59;5150621;27;20209;-45
2023/10/02 02:18:54;;;;;;;7.50;6.00;;;;;;;16.79;73.34;95263.25;5151213;27;20395;-44
2023/10/02 02:21:24;;;;;;;7.57;5.17;;;;;;;16.80;72.87;95270.06;5151681;27;20236;-43
2023/10/02 02:24:03;;;;;;;7.07;4.80;;;;;;;16.62;73.15;95251.28;5165437;27;20663;-45
2023/10/02 02:26:31;;;;;;;8.40;5.17;;;;;;;16.69;72.66;95270.34;5170490;27;20251;-45
2023/10/02 02:28:59;;;;;;;12.30;5.13;;;;;;;16.65;72.57;95263.88;5171480;27;20222;-44
2023/10/02 02:31:32;;;;;;;7.10;5.03;;;;;;;16.61;72.56;95268.53;5171394;27;20190;-44
2023/10/02 02:34:04;;;;;;;5.70;4.73;;;;;;;16.56;72.65;95263.06;5162842;27;20190;-44
2023/10/02 02:36:35;;;;;;;12.87;5.43;;;;;;;16.49;72.86;95267.25;5171596;27;20194;-45
2023/10/02 02:39:15;;;;;;;6.07;4.53;;;;;;;16.45;72.65;95274.53;5171646;27;20731;-45
2023/10/02 02:41:47;;;;;;;9.10;5.87;;;;;;;16.42;72.24;95277.41;5171375;27;20239;-45
2023/10/02 02:47:07;;;;;;;7.80;5.13;;;;;;;16.36;71.53;95277.22;5171373;27;20241;-44
2023/10/02 02:49:48;;;;;;;10.03;4.30;;;;;;;16.30;71.64;95276.91;5170570;27;20258;-44
2023/10/02 02:52:15;;;;;;;6.63;4.90;;;;;;;16.31;71.56;95267.38;5171494;27;20191;-45
2023/10/02 02:54:44;;;;;;;8.93;5.23;;;;;;;16.30;71.46;95273.50;5155165;27;20179;-45
2023/10/02 02:57:12;;;;;;;9.73;5.10;;;;;;;16.26;71.48;95269.63;5150590;27;20180;-44
2023/10/02 02:59:40;;;;;;;9.07;4.87;;;;;;;16.19;71.84;95268.63;5150584;27;20199;-44
2023/10/02 03:02:08;;;;;;;8.27;5.30;;;;;;;16.11;71.97;95268.63;5150237;27;20287;-45
2023/10/02 03:04:39;;;;;;;8.37;4.90;;;;;;;16.07;71.93;95268.16;5168167;27;20190;-44
2023/10/02 03:07:18;;;;;;;7.00;4.23;;;;;;;15.82;70.79;95223.41;5171079;27;20302;-44
2023/10/02 03:09:46;;;;;;;5.50;4.13;;;;;;;16.02;70.66;95265.22;5170923;27;20183;-45
2023/10/02 03:12:13;;;;;;;6.73;4.27;;;;;;;16.01;70.24;95266.19;5171387;27;20218;-44
2023/10/02 03:14:43;;;;;;;10.87;4.97;;;;;;;15.97;70.05;95265.69;5170650;27;20824;-44
2023/10/02 03:19:50;;;;;;;7.63;4.57;;;;;;;15.91;69.80;95260.34;5168126;27;20213;-44
2023/10/02 03:22:20;;;;;;;5.80;4.83;;;;;;;15.90;69.71;95261.31;5171211;27;20277;-44
2023/10/02 03:24:48;;;;;;;7.33;4.00;;;;;;;15.85;69.65;95272.09;5170566;27;20637;-46
2023/10/02 03:27:14;;;;;;;8.00;4.57;;;;;;;15.86;68.61;95268.56;5158603;27;20235;-45
2023/10/02 03:29:45;;;;;;;7.70;4.13;;;;;;;15.85;68.14;95263.56;5150006;27;20215;-44
2023/10/02 03:32:12;;;;;;;6.83;4.70;;;;;;;15.83;67.96;95268.84;5150452;27;20578;-44
2023/10/02 03:34:48;;;;;;;6.97;4.83;;;;;;;15.81;67.89;95260.47;5168511;27;20184;-44
2023/10/02 03:37:20;;;;;;;9.47;4.53;;;;;;;15.78;67.48;95258.22;5170889;27;20182;-45
2023/10/02 03:39:59;;;;;;;7.33;5.00;;;;;;;15.79;67.39;95270.13;5174528;27;20220;-45
2023/10/02 03:42:26;;;;;;;7.10;4.50;;;;;;;15.79;67.13;95277.88;5154099;27;20620;-44
2023/10/02 03:44:56;;;;;;;7.90;4.27;;;;;;;15.75;67.06;95267.06;5153746;27;20203;-46
2023/10/02 03:47:23;;;;;;;6.87;4.63;;;;;;;15.73;67.14;95263.03;5153648;27;20241;-45
2023/10/02 03:49:50;;;;;;;7.37;4.67;;;;;;;15.67;67.00;95261.88;5154650;27;20179;-44
2023/10/02 03:52:18;;;;;;;7.03;4.53;;;;;;;15.68;67.19;95263.50;5153606;27;20183;-44
2023/10/02 03:54:45;;;;;;;6.70;4.47;;;;;;;15.59;66.87;95251.50;5153682;27;20195;-45
2023/10/02 03:57:37;;;;;;;6.97;4.60;;;;;;;15.67;66.55;95264.47;5153665;27;20204;-43
2023/10/02 04:00:18;;;;;;;6.30;4.23;;;;;;;15.72;65.62;95266.56;5153387;27;20267;-44
2023/10/02 04:02:45;;;;;;;7.03;4.47;;;;;;;15.70;65.72;95273.66;5153853;27;20206;-43
2023/10/02 04:05:12;;;;;;;7.03;4.67;;;;;;;15.67;65.53;95274.78;5153218;27;20183;-44
2023/10/02 04:07:40;;;;;;;8.63;5.23;;;;;;;15.68;65.76;95280.75;5153617;27;20260;-45
2023/10/02 04:10:08;;;;;;;15.67;4.57;;;;;;;15.55;65.47;95256.16;5155833;27;20187;-43
2023/10/02 04:12:50;;;;;;;9.30;4.87;;;;;;;15.69;65.19;95285.72;5154350;27;20182;-45
2023/10/02 04:15:18;;;;;;;5.60;4.57;;;;;;;15.55;65.12;95271.63;5155649;27;20187;-43
2023/10/02 04:17:49;;;;;;;7.93;4.27;;;;;;;15.68;64.75;95284.13;5154811;27;20202;-44
2023/10/02 04:20:27;;;;;;;9.20;4.33;;;;;;;15.67;65.13;95287.66;5173852;27;20275;-43
2023/10/02 04:22:54;;;;;;;10.83;4.10;;;;;;;15.67;64.62;95285.09;5174260;27;20191;-44
2023/10/02 04:25:24;;;;;;;8.60;4.30;;;;;;;15.73;64.40;95286.25;5174189;27;20183;-44
2023/10/02 04:28:08;;;;;;;6.93;3.93;;;;;;;15.70;64.53;95289.91;5173608;27;20711;-42
2023/10/02 04:30:37;;;;;;;9.63;4.97;;;;;;;15.72;64.52;95292.38;5167192;27;20191;-43
2023/10/02 04:33:08;;;;;;;10.13;4.30;;;;;;;15.72;64.33;95298.31;5153295;27;20278;-45
2023/10/02 04:35:52;;;;;;;6.47;4.47;;;;;;;15.73;64.13;95299.94;5153095;27;20236;-45
2023/10/02 04:38:48;;;;;;;12.30;4.67;;;;;;;14.95;63.98;95173.72;5152856;27;20187;-43
2023/10/02 04:41:20;;;;;;;11.17;4.60;;;;;;;15.73;64.20;95307.66;5158391;27;20194;-44
2023/10/02 04:43:48;;;;;;;6.23;4.17;;;;;;;15.76;64.50;95311.72;5163773;27;20191;-44
2023/10/02 04:46:15;;;;;;;5.70;3.97;;;;;;;15.74;64.42;95301.53;5152761;27;20223;-43
2023/10/02 04:48:45;;;;;;;8.47;4.07;;;;;;;15.80;63.37;95313.84;5152512;27;20268;-45
2023/10/02 04:51:12;;;;;;;9.70;4.00;;;;;;;15.65;63.94;95288.78;5166168;27;20281;-44
2023/10/02 04:53:42;;;;;;;7.03;4.03;;;;;;;15.89;64.92;95314.69;5173343;27;20254;-43
2023/10/02 04:56:21;;;;;;;9.83;4.10;;;;;;;15.96;63.81;95315.66;5173532;27;20183;-43
2023/10/02 04:58:49;;;;;;;8.57;3.97;;;;;;;16.07;63.73;95313.78;5153350;27;20222;-44
2023/10/02 05:01:34;;;;;;;6.40;4.17;;;;;;;16.19;63.33;95323.66;5152596;27;20188;-44
2023/10/02 05:04:03;;;;;;;9.93;4.00;;;;;;;16.34;63.02;95326.44;5152400;27;20195;-45
2023/10/02 05:09:38;;;;;;;6.30;3.83;;;;;;;16.61;62.03;95327.13;5088173;28;20213;-44
2023/10/02 05:12:06;;;;;;;7.73;4.07;;;;;;;16.74;61.00;95317.19;5088485;28;20225;-44
2023/10/02 05:14:34;;;;;;;7.90;4.23;;;;;;;16.53;60.61;95291.78;5088339;28;20186;-45
2023/10/02 05:19:57;;;;;;;7.50;3.87;;;;;;;16.89;60.44;95315.59;5028166;28;20191;-44
2023/10/02 05:22:24;;;;;;;7.40;4.13;;;;;;;16.93;60.52;95321.25;5027806;28;20679;-45
2023/10/02 05:24:58;;;;;;;9.03;4.70;;;;;;;17.04;60.34;95320.91;5028174;28;20211;-44
2023/10/02 05:27:29;;;;;;;8.53;4.10;;;;;;;17.18;59.60;95327.19;5027428;28;20262;-45
2023/10/02 05:29:58;;;;;;;8.07;3.03;;;;;;;17.25;58.78;95333.34;5028001;28;20712;-43
2023/10/02 05:32:31;;;;;;;10.77;4.00;;;;;;;17.31;58.78;95332.66;5028000;28;20310;-45
2023/10/02 05:35:05;;;;;;;7.93;3.70;;;;;;;17.52;58.46;95337.34;5027910;28;20711;-44
2023/10/02 05:37:33;;;;;;;4.77;3.00;;;;;;;17.84;57.00;95343.47;5027995;28;20201;-43
2023/10/02 05:43:12;;;;;;;6.00;3.93;;;;;;;18.18;56.00;95343.97;5086791;27;20542;-44
2023/10/02 05:45:47;;;;;;;6.37;4.27;;;;;;;18.17;56.07;95347.53;5085433;28;20295;-44
2023/10/02 05:48:15;;;;;;;8.40;3.93;;;;;;;18.19;55.68;95344.78;5069183;28;20334;-45
2023/10/02 05:50:47;;;;;;;6.07;3.50;;;;;;;18.25;55.81;95338.91;5096732;28;20181;-45
2023/10/02 05:53:15;;;;;;;6.40;3.23;;;;;;;18.52;55.10;95348.00;5090217;28;20190;-43
2023/10/02 05:58:31;;;;;;;6.50;3.33;;;;;;;19.05;53.03;95343.81;5086405;28;20274;-45
2023/10/02 06:01:01;;;;;;;10.90;3.50;;;;;;;19.30;52.49;95350.41;5083345;28;20705;-44
2023/10/02 06:03:34;;;;;;;7.57;3.33;;;;;;;19.48;51.78;95355.28;5084623;28;20212;-45
2023/10/02 06:06:15;;;;;;;11.77;3.57;;;;;;;19.70;51.33;95350.25;5083217;28;20593;-44
2023/10/02 06:08:43;;;;;;;21.07;4.90;;;;;;;19.84;49.87;95354.63;5084925;28;20653;-44
2023/10/02 06:11:25;;;;;;;15.90;4.43;;;;;;;19.88;50.01;95355.09;5085378;28;20213;-44
2023/10/02 06:13:58;;;;;;;6.77;4.73;;;;;;;19.92;50.20;95351.94;5085256;28;20202;-45
2023/10/02 06:16:29;;;;;;;8.47;4.17;;;;;;;20.04;49.82;95352.31;5085210;28;20198;-45
2023/10/02 06:19:03;;;;;;;9.43;4.43;;;;;;;20.22;49.24;95360.53;5084858;28;20695;-45
2023/10/02 06:21:30;;;;;;;6.85;4.28;;;;;;;20.39;49.72;95358.53;5084583;28;20222;-46
2023/10/02 06:23:58;;;;;;;4.40;3.67;;;;;;;20.62;48.58;95355.03;5085117;28;20224;-46
2023/10/02 06:26:29;;;;;;;9.77;4.15;;;;;;;20.83;48.48;95360.25;5085273;28;20190;-45
2023/10/02 06:31:59;;;;;;;6.05;3.40;;;;;;;21.45;46.45;95367.44;5063997;28;20472;-44
2023/10/02 06:34:37;;;;;;;10.02;3.85;;;;;;;21.59;45.49;95365.75;5061498;28;20232;-45
2023/10/02 06:37:12;;;;;;;10.73;3.47;;;;;;;21.72;45.42;95380.66;5059582;28;20186;-43
2023/10/02 06:39:41;;;;;;;8.98;3.88;;;;;;;21.86;44.87;95384.16;5061859;28;20299;-44
2023/10/02 06:42:09;;;;;;;8.32;4.05;;;;;;;21.74;45.29;95386.47;5061403;28;20230;-44
2023/10/02 06:44:41;;;;;;;9.50;3.30;;;;;;;21.78;44.91;95385.09;5061812;28;20706;-44
2023/10/02 06:47:13;;;;;;;5.85;3.40;;;;;;;21.89;45.67;95382.00;5061215;28;20294;-44
2023/10/02 06:49:44;;;;;;;7.32;3.50;;;;;;;22.00;44.56;95358.00;5064008;28;20614;-43
2023/10/02 06:52:15;;;;;;;7.05;3.17;;;;;;;22.28;44.74;95393.66;5059887;28;20281;-44
2023/10/02 06:54:48;;;;;;;8.98;3.50;;;;;;;22.50;44.75;95389.94;5048205;28;20195;-44
2023/10/02 06:57:18;;;;;;;11.65;4.30;;;;;;;22.69;43.90;95398.03;5048699;28;20228;-43
2023/10/02 06:59:53;;;;;;;5.57;3.28;;;;;;;22.85;43.68;95392.47;5048885;28;20198;-44
2023/10/02 07:02:22;;;;;;;5.72;3.58;;;;;;;22.99;43.66;95390.72;5047557;28;20294;-45
2023/10/02 07:04:50;;;;;;;6.45;4.10;;;;;;;23.24;43.18;95399.59;5049074;28;20191;-43
2023/10/02 07:07:21;;;;;;;12.80;4.13;;;;;;;23.41;41.76;95407.06;5055538;28;20202;-43
2023/10/02 07:09:48;;;;;;;6.90;4.03;;;;;;;23.36;42.39;95405.06;5069971;28;20194;-45
2023/10/02 07:12:15;;;;;;;5.40;3.78;;;;;;;23.21;42.39;95399.19;5070492;28;20225;-43
2023/10/02 07:14:45;;;;;;;7.82;3.70;;;;;;;23.03;42.65;95390.13;5070647;28;20685;-43
2023/10/02 07:17:16;;;;;;;11.32;4.30;;;;;;;23.12;43.30;95400.38;5070490;28;20194;-44
2023/10/02 07:19:48;;;;;;;12.40;3.67;;;;;;;23.30;42.97;95405.84;5072231;28;20255;-43
2023/10/02 07:22:25;;;;;;;9.00;4.00;;;;;;;23.47;42.09;95411.47;5070531;28;20257;-44
2023/10/02 07:24:54;;;;;;;8.27;3.78;;;;;;;23.35;42.75;95402.63;5070388;28;20810;-43
2023/10/02 07:27:26;;;;;;;9.05;3.67;;;;;;;23.38;42.61;95402.22;5071142;28;20218;-44
2023/10/02 07:29:56;;;;;;;22.48;4.43;;;;;;;23.20;42.66;95390.56;5070262;28;20579;-43
2023/10/02 07:32:25;;;;;;;17.13;4.72;;;;;;;23.28;43.02;95402.63;5070113;28;20661;-44
2023/10/02 07:34:53;;;;;;;7.97;3.90;;;;;;;23.31;43.01;95399.59;5071013;28;20183;-44
2023/10/02 07:37:22;;;;;;;8.45;3.95;;;;;;;23.36;42.74;95399.81;5072590;28;20183;-44
2023/10/02 07:40:00;;;;;;;4.72;3.33;;;;;;;23.33;42.62;95397.59;5071792;28;20194;-44
2023/10/02 07:42:32;;;;;;;8.88;3.95;;;;;;;23.23;43.09;95397.22;5068274;28;20233;-44
2023/10/02 07:45:12;;;;;;;9.38;4.03;;;;;;;23.09;43.16;95400.78;5069487;28;20222;-45
2023/10/02 07:50:33;;;;;;;4.72;3.72;;;;;;;23.37;43.18;95408.47;5069898;28;21037;-43
2023/10/02 07:53:04;;;;;;;6.18;3.60;;;;;;;23.54;42.19;95414.91;5069616;28;20194;-44
2023/10/02 07:55:32;;;;;;;5.80;3.30;;;;;;;23.56;43.01;95410.25;5069847;28;20196;-43
2023/10/02 07:58:00;;;;;;;6.57;3.60;;;;;;;23.81;42.50;95412.31;5070496;28;20201;-44
2023/10/02 08:00:41;;;;;;;10.75;3.72;;;;;;;23.99;41.08;95409.88;5069786;28;20251;-44
2023/10/02 08:05:56;;;;;;;5.53;3.55;;;;;;;23.44;41.89;95360.44;5067966;28;20198;-43
2023/10/02 08:08:25;;;;;;;6.60;4.13;;;;;;;23.74;41.67;95407.06;5071103;28;20609;-44
2023/10/02 08:10:53;;;;;;;5.95;4.35;;;;;;;23.69;41.84;95402.47;5068677;28;20199;-45
2023/10/02 08:13:32;;;;;;;5.88;4.03;;;;;;;23.49;42.06;95389.38;5069755;28;20201;-44
2023/10/02 08:16:07;;;;;;;5.63;3.47;;;;;;;23.60;42.46;95405.44;5066785;28;20186;-43
2023/10/02 08:18:55;;;;;;;5.30;3.80;;;;;;;23.75;42.47;95400.88;5069761;28;20289;-44
2023/10/02 08:21:34;;;;;;;7.85;3.92;;;;;;;23.84;41.97;95406.69;5071171;28;20275;-43
2023/10/02 08:24:03;;;;;;;7.18;4.07;;;;;;;23.59;42.20;95403.84;5069308;28;20190;-43
2023/10/02 08:26:38;;;;;;;8.68;4.00;;;;;;;23.49;42.19;95406.88;5066742;28;20584;-44
2023/10/02 08:29:07;;;;;;;6.15;3.90;;;;;;;23.48;42.42;95398.19;5069800;28;20196;-43
2023/10/02 08:31:35;;;;;;;5.63;3.70;;;;;;;23.52;42.88;95398.63;5069330;28;20198;-43
2023/10/02 08:34:09;;;;;;;6.85;3.72;;;;;;;23.55;42.80;95411.28;5069529;28;20646;-44
2023/10/02 08:36:37;;;;;;;6.63;4.10;;;;;;;23.56;42.18;95412.06;5068829;28;20638;-44
2023/10/02 08:39:04;;;;;;;8.68;3.80;;;;;;;23.57;41.96;95408.47;5069351;28;20281;-44
2023/10/02 08:41:43;;;;;;;14.00;4.13;;;;;;;23.45;42.13;95410.88;5065698;28;20222;-43
2023/10/02 08:44:13;;;;;;;8.02;4.78;;;;;;;23.16;42.32;95406.81;5068099;28;20187;-44
2023/10/02 08:46:42;;;;;;;7.10;4.15;;;;;;;22.93;42.95;95399.34;5068665;28;20197;-44
2023/10/02 08:49:11;;;;;;;6.80;4.32;;;;;;;22.84;43.17;95398.69;5070631;28;20255;-45
2023/10/02 08:51:39;;;;;;;6.72;3.90;;;;;;;22.82;43.62;95399.88;5070368;28;20273;-44
2023/10/02 08:54:07;;;;;;;8.18;4.13;;;;;;;22.84;43.98;95401.31;5068803;28;20194;-44
2023/10/02 08:56:43;;;;;;;9.23;4.40;;;;;;;22.68;43.18;95359.94;5068330;28;20280;-43
2023/10/02 08:59:17;;;;;;;9.43;4.15;;;;;;;22.77;43.82;95387.44;5066731;28;20600;-44
2023/10/02 09:01:47;;;;;;;9.02;4.25;;;;;;;22.89;43.57;95390.28;5068382;28;20190;-43
2023/10/02 09:07:14;;;;;;;5.85;3.97;;;;;;;22.91;43.55;95391.72;5069386;28;20197;-45
2023/10/02 09:09:54;;;;;;;6.43;4.20;;;;;;;22.84;43.98;95398.69;5067258;28;20193;-44
2023/10/02 09:12:21;;;;;;;6.70;4.20;;;;;;;22.77;43.74;95395.25;5068641;28;20600;-43
2023/10/02 09:14:51;;;;;;;12.00;4.30;;;;;;;22.64;44.08;95387.38;5068702;28;20198;-43
2023/10/02 09:17:19;;;;;;;6.75;4.43;;;;;;;22.56;44.43;95382.34;5068364;28;20354;-45
2023/10/02 09:19:54;;;;;;;9.32;4.00;;;;;;;22.59;44.46;95387.97;5068353;28;20278;-45
2023/10/02 09:22:25;;;;;;;5.43;3.72;;;;;;;22.58;42.84;95385.53;5068112;28;20260;-44
2023/10/02 09:25:09;;;;;;;8.80;4.57;;;;;;;22.48;43.08;95386.72;5068144;28;20187;-44
2023/10/02 09:27:41;;;;;;;8.18;4.05;;;;;;;22.48;43.37;95389.31;5068135;28;20268;-43
2023/10/02 09:30:21;;;;;;;5.80;4.32;;;;;;;22.47;44.23;95379.09;5068181;28;20186;-44
2023/10/02 09:32:50;;;;;;;9.52;3.97;;;;;;;22.54;43.28;95378.13;5068113;28;20687;-44
2023/10/02 09:35:29;;;;;;;7.72;4.45;;;;;;;22.54;43.38;95382.53;5068491;28;20247;-45
2023/10/02 09:38:02;;;;;;;11.60;5.15;;;;;;;22.55;43.66;95378.94;5067580;28;20231;-44
2023/10/02 09:40:53;;;;;;;12.27;3.97;;;;;;;22.63;43.33;95378.75;5068074;28;20198;-45
2023/10/02 09:43:22;;;;;;;5.80;4.40;;;;;;;22.65;42.90;95383.78;5067805;28;20210;-45
2023/10/02 09:45:52;;;;;;;6.22;3.72;;;;;;;22.62;42.79;95373.72;5068281;28;20248;-45
2023/10/02 09:51:21;;;;;;;12.27;4.75;;;;;;;22.60;42.56;95371.31;5067924;28;20198;-45
2023/10/02 09:54:04;;;;;;;7.90;4.20;;;;;;;22.58;42.15;95365.50;5067926;28;20224;-45
2023/10/02 09:56:51;;;;;;;9.32;4.30;;;;;;;22.62;41.45;95363.31;5067479;28;20641;-43
2023/10/02 09:59:22;;;;;;;6.57;4.40;;;;;;;22.60;41.63;95373.13;5067394;28;20201;-43
2023/10/02 10:08:27;;;;;;;7.20;4.47;;;;;;;22.58;41.31;95378.53;5067818;28;20700;-44
2023/10/02 10:10:57;;;;;;;5.20;3.95;;;;;;;22.54;41.55;95370.31;5068036;28;20198;-42
2023/10/02 10:13:36;;;;;;;9.70;4.97;;;;;;;22.70;39.89;95374.34;5067869;28;20666;-44
2023/10/02 10:16:38;;;;;;;7.90;4.28;;;;;;;22.76;40.02;95373.59;5067974;28;20202;-44
2023/10/02 10:19:26;;;;;;;6.53;4.28;;;;;;;22.79;39.78;95372.38;5068076;28;20182;-44
2023/10/02 10:22:00;;;;;;;8.85;4.95;;;;;;;22.77;40.01;95367.38;5067778;28;20265;-43
2023/10/02 10:24:55;;;;;;;8.02;4.22;;;;;;;22.94;39.79;95360.00;5068069;28;20293;-44
2023/10/02 10:27:54;;;;;;;7.65;4.15;;;;;;;22.90;39.77;95366.63;5067192;28;20281;-43
2023/10/02 10:30:44;;;;;;;7.28;4.95;;;;;;;22.89;39.82;95356.38;5071266;28;20251;-44
2023/10/02 10:33:40;;;;;;;6.00;4.13;;;;;;;22.95;39.17;95353.78;5071387;28;20194;-43
2023/10/02 10:36:36;;;;;;;9.98;4.93;;;;;;;22.94;39.36;95344.38;5071268;28;20183;-45
2023/10/02 10:41:57;;;;;;;7.35;5.03;;;;;;;22.95;38.74;95343.34;5070786;28;20234;-44
2023/10/02 10:44:32;;;;;;;6.63;5.05;;;;;;;22.96;39.18;95349.38;5071425;28;20252;-43
2023/10/02 10:47:03;;;;;;;6.78;4.68;;;;;;;22.62;39.83;95280.66;5070747;28;20190;-44
2023/10/02 10:49:52;;;;;;;8.07;4.85;;;;;;;23.12;39.61;95333.34;5070722;28;20289;-44
2023/10/02 10:52:34;;;;;;;5.68;4.32;;;;;;;23.12;39.46;95332.53;5071051;28;20205;-43
2023/10/02 10:55:04;;;;;;;8.82;4.97;;;;;;;23.10;39.58;95327.53;5067026;28;20580;-44
2023/10/02 10:57:51;;;;;;;7.47;4.93;;;;;;;23.15;39.78;95327.72;5071330;28;20259;-44
2023/10/02 11:00:31;;;;;;;8.30;4.82;;;;;;;23.00;40.07;95327.91;5071232;28;20572;-44
2023/10/02 11:03:07;;;;;;;7.25;4.88;;;;;;;22.85;40.56;95324.66;5068968;28;20218;-45
2023/10/02 11:05:35;;;;;;;8.10;4.40;;;;;;;22.84;41.38;95312.63;5070532;28;20574;-44
2023/10/02 11:08:25;;;;;;;6.97;4.40;;;;;;;22.96;41.04;95318.06;5071423;28;20194;-43
2023/10/02 11:11:18;;;;;;;8.27;5.57;;;;;;;23.01;40.62;95315.66;5070699;28;20410;-44
2023/10/02 11:13:54;;;;;;;10.45;5.20;;;;;;;22.98;41.13;95309.06;5071681;28;20621;-43
2023/10/02 11:16:31;;;;;;;5.88;4.30;;;;;;;23.10;41.37;95311.88;5070386;28;20225;-43
2023/10/02 11:19:25;;;;;;;6.55;4.70;;;;;;;23.20;40.86;95321.91;5070765;28;20202;-44
2023/10/02 11:22:03;;;;;;;7.20;4.65;;;;;;;23.14;40.62;95307.84;5008362;28;20192;-44
2023/10/02 11:24:30;;;;;;;8.90;5.55;;;;;;;23.03;40.86;95306.63;5008706;28;20831;-45
2023/10/02 11:27:06;;;;;;;7.05;4.97;;;;;;;23.08;40.71;95303.44;5008738;28;20227;-46
2023/10/02 11:29:40;;;;;;;7.20;4.28;;;;;;;23.09;41.41;95299.81;5007827;28;20211;-44
2023/10/02 11:32:23;;;;;;;15.25;4.88;;;;;;;22.93;42.73;95271.53;5007701;28;20671;-43
2023/10/02 11:34:58;;;;;;;5.80;4.72;;;;;;;23.16;42.17;95302.44;5008182;28;20219;-45
2023/10/02 11:37:26;;;;;;;7.13;4.88;;;;;;;23.14;41.77;95289.56;5007846;28;20188;-45
2023/10/02 11:39:55;;;;;;;7.57;4.85;;;;;;;23.26;41.54;95295.00;5007991;28;20188;-44
2023/10/02 11:42:23;;;;;;;8.35;5.05;;;;;;;23.32;41.36;95301.25;5007522;28;20256;-44
2023/10/02 11:44:51;;;;;;;8.82;4.80;;;;;;;23.31;41.77;95294.38;5007204;28;20580;-44
2023/10/02 11:47:18;;;;;;;7.63;4.43;;;;;;;23.22;42.15;95296.41;5007723;28;20196;-44
2023/10/02 11:49:44;;;;;;;7.55;4.47;;;;;;;23.23;42.16;95290.19;5007948;28;20200;-45
2023/10/02 11:52:11;;;;;;;6.38;4.35;;;;;;;23.25;42.06;95290.78;5007575;28;20196;-44
2023/10/02 11:54:39;;;;;;;11.00;4.35;;;;;;;23.17;42.42;95297.00;5007862;28;20286;-44
2023/10/02 11:57:09;;;;;;;6.30;4.30;;;;;;;23.03;42.41;95292.78;5007664;28;20196;-44
2023/10/02 11:59:37;;;;;;;8.63;4.65;;;;;;;22.87;42.77;95290.53;5069296;28;20206;-43
2023/10/02 12:02:05;;;;;;;8.63;4.47;;;;;;;22.75;43.48;95296.34;5069429;28;20190;-44
2023/10/02 12:04:34;;;;;;;6.40;4.72;;;;;;;22.74;43.30;95288.72;5070500;28;20597;-43
2023/10/02 12:07:01;;;;;;;5.45;4.38;;;;;;;22.73;43.28;95295.75;5069525;28;20566;-44
2023/10/02 12:09:28;;;;;;;9.13;4.38;;;;;;;22.71;43.54;95289.09;5069634;28;20204;-43
2023/10/02 12:11:55;;;;;;;11.10;4.80;;;;;;;22.67;43.07;95280.09;5069426;28;20205;-43
2023/10/02 12:14:23;;;;;;;7.60;4.75;;;;;;;22.76;43.25;95281.50;5069340;28;20211;-44
2023/10/02 12:16:50;;;;;;;7.97;4.45;;;;;;;22.86;43.16;95281.91;5068735;28;20218;-43
2023/10/02 12:19:18;;;;;;;7.97;4.78;;;;;;;22.96;43.06;95281.53;5069357;28;20193;-43
2023/10/02 12:21:45;;;;;;;7.30;4.55;;;;;;;23.00;42.97;95274.94;5069493;28;20225;-44
2023/10/02 12:24:11;;;;;;;8.25;4.82;;;;;;;23.15;43.43;95277.34;5069010;28;20225;-43
2023/10/02 12:26:38;;;;;;;6.97;4.75;;;;;;;23.25;42.70;95277.75;5067608;28;20558;-43
2023/10/02 12:29:05;;;;;;;39.50;6.25;;;;;;;23.29;42.06;95266.69;5069078;28;20187;-44
2023/10/02 12:31:36;;;;;;;19.27;5.35;;;;;;;23.29;42.46;95274.53;5068916;28;20720;-44
2023/10/02 12:34:05;;;;;;;10.30;4.63;;;;;;;23.37;42.56;95267.50;5068964;28;22059;-43
2023/10/02 12:36:33;;;;;;;8.02;4.32;;;;;;;23.41;42.84;95279.13;5069488;28;20256;-44
2023/10/02 12:39:01;;;;;;;8.80;4.57;;;;;;;23.39;42.41;95271.50;5069506;28;20287;-44
2023/10/02 12:41:29;;;;;;;8.20;4.70;;;;;;;23.33;42.69;95259.25;5072006;28;20719;-44
2023/10/02 12:43:56;;;;;;;8.52;4.38;;;;;;;23.34;42.68;95260.06;5070731;28;20253;-44